createdAt,value
2023-05-18T00:03:57.203Z,15.00
2023-05-18T00:08:01.794Z,14.90
2023-05-18T00:12:10.666Z,15.00
2023-05-18T00:16:40.542Z,15.00
2023-05-18T00:20:46.999Z,15.00
2023-05-18T00:25:16.724Z,15.00
2023-05-18T00:29:23.178Z,15.00
2023-05-18T00:33:27.666Z,15.00
2023-05-18T00:37:35.953Z,15.00
2023-05-18T00:41:48.535Z,14.90
2023-05-18T00:45:52.941Z,14.90
2023-05-18T00:49:59.159Z,14.90
2023-05-18T00:54:07.240Z,14.90
2023-05-18T00:58:13.036Z,14.90
2023-05-18T01:02:17.121Z,14.90
2023-05-18T01:06:20.154Z,14.90
2023-05-18T01:10:26.253Z,14.80
2023-05-18T01:14:50.082Z,15.00
2023-05-18T01:19:04.227Z,15.00
2023-05-18T01:23:30.543Z,15.00
2023-05-18T01:27:37.758Z,15.00
2023-05-18T01:31:40.990Z,15.00
2023-05-18T01:35:48.548Z,15.00
2023-05-18T01:39:53.221Z,15.00
2023-05-18T01:44:22.397Z,15.10
2023-05-18T01:48:27.081Z,15.10
2023-05-18T01:52:42.870Z,15.10
2023-05-18T01:56:48.810Z,15.10
2023-05-18T02:00:53.817Z,15.00
2023-05-18T02:05:19.364Z,15.00
2023-05-18T02:09:24.224Z,15.00
2023-05-18T02:13:34.148Z,15.00
2023-05-18T02:17:38.382Z,14.90
2023-05-18T02:21:46.037Z,14.90
2023-05-18T02:25:49.323Z,14.90
2023-05-18T02:29:52.173Z,14.90
2023-05-18T02:33:55.299Z,14.90
2023-05-18T02:37:58.487Z,14.90
2023-05-18T02:42:02.273Z,14.90
2023-05-18T02:46:05.636Z,14.90
2023-05-18T02:50:10.750Z,14.80
2023-05-18T02:54:13.737Z,14.80
2023-05-18T02:58:18.460Z,14.80
2023-05-18T03:02:38.882Z,14.80
2023-05-18T03:06:42.573Z,14.70
2023-05-18T03:10:46.620Z,14.70
2023-05-18T03:14:50.189Z,14.60
2023-05-18T03:18:55.607Z,14.60
2023-05-18T03:22:58.892Z,14.60
2023-05-18T03:27:02.536Z,14.60
2023-05-18T03:31:05.779Z,14.60
2023-05-18T03:35:09.751Z,14.60
2023-05-18T03:39:13.158Z,14.70
2023-05-18T03:43:16.293Z,14.70
2023-05-18T03:47:22.281Z,14.70
2023-05-18T03:51:27.239Z,14.60
2023-05-18T03:55:30.350Z,14.70
2023-05-18T03:59:33.676Z,14.60
2023-05-18T04:03:37.271Z,14.60
2023-05-18T04:07:44.374Z,14.60
2023-05-18T04:11:47.371Z,14.60
2023-05-18T04:15:50.279Z,14.60
2023-05-18T04:19:54.403Z,14.60
2023-05-18T04:23:59.827Z,14.60
2023-05-18T04:28:03.120Z,14.60
2023-05-18T04:32:08.073Z,14.60
2023-05-18T04:36:11.094Z,14.60
2023-05-18T04:40:17.245Z,14.70
2023-05-18T04:44:21.671Z,14.70
2023-05-18T04:48:26.332Z,14.70
2023-05-18T04:52:30.951Z,14.80
2023-05-18T04:56:34.617Z,14.90
2023-05-18T05:00:37.730Z,14.90
2023-05-18T05:04:42.056Z,14.90
2023-05-18T05:08:45.107Z,15.00
2023-05-18T05:12:49.704Z,15.00
2023-05-18T05:16:53.504Z,15.10
2023-05-18T05:20:59.796Z,15.10
2023-05-18T05:25:05.178Z,15.10
2023-05-18T05:29:10.215Z,15.10
2023-05-18T05:33:13.351Z,15.20
2023-05-18T05:37:21.769Z,15.20
2023-05-18T05:41:26.146Z,15.30
2023-05-18T05:45:29.483Z,15.40
2023-05-18T05:49:36.348Z,15.40
2023-05-18T05:53:41.205Z,15.50
2023-05-18T05:57:44.318Z,15.60
2023-05-18T06:01:47.327Z,15.70
2023-05-18T06:05:51.156Z,15.80
2023-05-18T06:09:56.578Z,15.90
2023-05-18T06:14:00.247Z,16.10
2023-05-18T06:18:03.563Z,16.40
2023-05-18T06:22:06.720Z,16.70
2023-05-18T06:26:19.182Z,16.90
2023-05-18T06:30:40.833Z,16.90
2023-05-18T06:34:51.635Z,17.00
2023-05-18T06:38:54.912Z,17.00
2023-05-18T06:42:58.023Z,17.10
2023-05-18T06:47:07.959Z,17.40
2023-05-18T06:51:11.476Z,17.70
2023-05-18T06:55:15.505Z,17.80
2023-05-18T06:59:19.284Z,18.00
2023-05-18T07:03:22.378Z,18.20
2023-05-18T07:07:25.260Z,18.30
2023-05-18T07:11:29.612Z,18.40
2023-05-18T07:15:35.695Z,18.50
2023-05-18T07:19:38.910Z,18.60
2023-05-18T07:23:41.753Z,18.60
2023-05-18T07:27:44.492Z,18.80
2023-05-18T07:31:47.768Z,18.60
2023-05-18T07:35:51.074Z,18.60
2023-05-18T07:39:53.988Z,18.50
2023-05-18T07:43:56.966Z,18.40
2023-05-18T07:48:00.418Z,18.50
2023-05-18T07:52:04.024Z,18.70
2023-05-18T07:56:08.804Z,18.70
2023-05-18T08:00:12.371Z,18.90
2023-05-18T08:04:18.454Z,19.00
2023-05-18T08:08:22.076Z,19.10
2023-05-18T08:12:25.319Z,19.30
2023-05-18T08:16:28.239Z,19.30
2023-05-18T08:20:31.468Z,19.30
2023-05-18T08:24:34.587Z,19.40
2023-05-18T08:28:37.446Z,19.50
2023-05-18T08:32:40.352Z,19.20
2023-05-18T08:36:45.715Z,19.20
2023-05-18T08:41:23.677Z,19.40
2023-05-18T08:45:46.895Z,19.60
2023-05-18T08:49:52.533Z,19.60
2023-05-18T08:53:55.409Z,19.50
2023-05-18T08:58:02.203Z,19.50
2023-05-18T09:02:05.248Z,19.60
2023-05-18T09:06:08.699Z,20.00
2023-05-18T09:10:12.379Z,20.10
2023-05-18T09:14:15.229Z,20.20
2023-05-18T09:18:18.150Z,20.20
2023-05-18T09:22:21.146Z,20.40
2023-05-18T09:26:24.211Z,20.50
2023-05-18T09:30:27.255Z,20.50
2023-05-18T09:34:43.224Z,20.50
2023-05-18T09:38:46.929Z,20.50
2023-05-18T09:42:50.158Z,20.30
2023-05-18T09:46:56.600Z,20.20
2023-05-18T09:50:59.964Z,20.20
2023-05-18T09:55:07.895Z,20.20
2023-05-18T09:59:16.446Z,20.10
2023-05-18T10:03:24.926Z,20.20
2023-05-18T10:07:28.965Z,20.30
2023-05-18T10:11:32.860Z,20.40
2023-05-18T10:15:36.045Z,20.60
2023-05-18T10:19:42.115Z,20.90
2023-05-18T10:23:47.658Z,21.00
2023-05-18T10:27:57.036Z,21.00
2023-05-18T10:32:06.072Z,21.00
2023-05-18T10:36:11.145Z,21.10
2023-05-18T10:40:15.687Z,21.30
2023-05-18T10:44:18.759Z,21.30
2023-05-18T10:48:22.880Z,21.30
2023-05-18T10:52:31.874Z,21.50
2023-05-18T10:56:37.671Z,21.50
2023-05-18T11:00:44.452Z,21.50
2023-05-18T11:04:48.206Z,21.40
2023-05-18T11:08:51.487Z,21.50
2023-05-18T11:12:54.292Z,21.30
2023-05-18T11:17:25.555Z,21.20
2023-05-18T11:21:52.130Z,21.20
2023-05-18T11:25:54.769Z,21.20
2023-05-18T11:30:11.677Z,21.10
2023-05-18T11:34:47.663Z,21.10
2023-05-18T11:38:54.609Z,21.10
2023-05-18T11:43:00.698Z,21.30
2023-05-18T11:47:09.825Z,21.50
2023-05-18T11:51:13.059Z,21.40
2023-05-18T11:55:18.447Z,21.20
2023-05-18T11:59:37.434Z,21.20
2023-05-18T12:03:40.371Z,21.30
2023-05-18T12:07:45.073Z,21.50
2023-05-18T12:11:47.997Z,21.50
2023-05-18T12:15:51.931Z,21.50
2023-05-18T12:19:54.601Z,21.80
2023-05-18T12:23:59.398Z,21.90
2023-05-18T12:28:02.744Z,22.00
2023-05-18T12:32:10.754Z,22.10
2023-05-18T12:36:14.382Z,22.20
2023-05-18T12:40:19.903Z,22.20
2023-05-18T12:44:23.993Z,22.30
2023-05-18T12:48:26.804Z,22.30
2023-05-18T12:52:29.584Z,22.50
2023-05-18T12:56:51.712Z,22.50
2023-05-18T13:00:54.395Z,22.40
2023-05-18T13:05:09.022Z,22.20
2023-05-18T13:09:16.211Z,22.30
2023-05-18T13:13:18.921Z,22.20
2023-05-18T13:17:25.064Z,22.30
2023-05-18T13:21:28.549Z,22.40
2023-05-18T13:25:32.500Z,22.50
2023-05-18T13:29:36.743Z,22.50
2023-05-18T13:33:39.439Z,22.70
2023-05-18T13:37:42.185Z,22.80
2023-05-18T13:41:44.908Z,22.80
2023-05-18T13:45:48.073Z,22.80
2023-05-18T13:49:51.764Z,22.80
2023-05-18T13:53:54.510Z,22.70
2023-05-18T13:57:57.791Z,22.60
2023-05-18T14:02:01.880Z,22.50
2023-05-18T14:06:05.060Z,22.50
2023-05-18T14:10:09.531Z,22.60
2023-05-18T14:14:12.621Z,22.60
2023-05-18T14:18:18.979Z,22.50
2023-05-18T14:22:22.097Z,22.40
2023-05-18T14:26:25.073Z,22.10
2023-05-18T14:30:27.833Z,22.10
2023-05-18T14:34:30.900Z,22.30
2023-05-18T14:38:33.759Z,22.50
2023-05-18T14:42:37.206Z,22.60
2023-05-18T14:46:41.260Z,22.50
2023-05-18T14:50:44.083Z,22.40
2023-05-18T14:54:47.959Z,22.30
2023-05-18T14:58:50.765Z,22.00
2023-05-18T15:02:53.642Z,21.90
2023-05-18T15:06:57.559Z,21.80
2023-05-18T15:11:04.890Z,21.60
2023-05-18T15:15:08.318Z,21.50
2023-05-18T15:19:11.085Z,21.50
2023-05-18T15:23:13.940Z,21.40
2023-05-18T15:27:16.759Z,21.30
2023-05-18T15:31:19.589Z,21.10
2023-05-18T15:35:23.606Z,21.10
2023-05-18T15:39:26.329Z,21.00
2023-05-18T15:43:30.517Z,21.00
2023-05-18T15:47:33.503Z,20.90
2023-05-18T15:51:36.250Z,20.70
2023-05-18T15:55:39.332Z,20.80
2023-05-18T15:59:42.049Z,20.70
2023-05-18T16:03:47.701Z,20.60
2023-05-18T16:07:50.596Z,20.50
2023-05-18T16:11:53.293Z,20.40
2023-05-18T16:15:56.099Z,20.40
2023-05-18T16:20:00.159Z,20.30
2023-05-18T16:24:04.401Z,20.20
2023-05-18T16:28:07.301Z,20.30
2023-05-18T16:32:10.147Z,20.40
2023-05-18T16:36:13.193Z,20.40
2023-05-18T16:40:16.079Z,20.30
2023-05-18T16:44:18.925Z,20.20
2023-05-18T16:48:21.784Z,20.10
2023-05-18T16:52:24.600Z,20.00
2023-05-18T16:56:29.850Z,19.90
2023-05-18T17:00:32.884Z,19.80
2023-05-18T17:04:36.939Z,19.60
2023-05-18T17:08:39.721Z,19.50
2023-05-18T17:12:42.950Z,19.40
2023-05-18T17:16:46.084Z,19.20
2023-05-18T17:20:48.847Z,19.10
2023-05-18T17:24:51.624Z,19.00
2023-05-18T17:28:54.343Z,18.90
2023-05-18T17:32:57.141Z,18.80
2023-05-18T17:37:00.197Z,18.70
2023-05-18T17:41:03.765Z,18.50
2023-05-18T17:45:07.036Z,18.50
2023-05-18T17:49:12.545Z,18.40
2023-05-18T17:53:15.322Z,18.30
2023-05-18T17:57:18.773Z,18.20
2023-05-18T18:01:21.582Z,18.20
2023-05-18T18:05:24.547Z,18.10
2023-05-18T18:09:27.852Z,18.00
2023-05-18T18:13:30.864Z,18.00
2023-05-18T18:17:34.043Z,17.90
2023-05-18T18:21:38.154Z,17.80
2023-05-18T18:25:41.204Z,17.70
2023-05-18T18:29:46.924Z,17.70
2023-05-18T18:33:53.236Z,17.60
2023-05-18T18:37:58.731Z,17.60
2023-05-18T18:42:01.559Z,17.50
2023-05-18T18:46:05.045Z,17.50
2023-05-18T18:50:08.364Z,17.50
2023-05-18T18:54:11.325Z,17.50
2023-05-18T18:58:14.339Z,17.50
2023-05-18T19:02:19.209Z,17.50
2023-05-18T19:06:24.517Z,17.50
2023-05-18T19:10:37.522Z,17.40
2023-05-18T19:14:44.524Z,17.40
2023-05-18T19:18:47.638Z,17.40
2023-05-18T19:22:50.614Z,17.40
2023-05-18T19:26:56.895Z,17.40
2023-05-18T19:31:02.526Z,17.40
2023-05-18T19:35:05.482Z,17.40
2023-05-18T19:39:08.532Z,17.40
2023-05-18T19:43:16.618Z,17.40
2023-05-18T19:47:20.953Z,17.40
2023-05-18T19:51:29.266Z,17.40
2023-05-18T19:55:35.520Z,17.40
2023-05-18T19:59:40.850Z,17.40
2023-05-18T20:03:48.642Z,17.40
2023-05-18T20:07:54.121Z,17.40
2023-05-18T20:12:06.254Z,17.30
2023-05-18T20:16:13.832Z,17.30
2023-05-18T20:24:48.976Z,17.20
2023-05-18T20:29:10.914Z,17.10
2023-05-18T20:33:21.016Z,17.10
2023-05-18T20:37:34.568Z,17.10
2023-05-18T20:41:40.154Z,17.10
2023-05-18T20:45:43.386Z,17.00
2023-05-18T20:49:47.659Z,17.00
2023-05-18T20:53:51.631Z,17.00
2023-05-18T20:57:54.661Z,17.00
2023-05-18T21:01:58.546Z,17.00
2023-05-18T21:06:02.846Z,17.00
2023-05-18T21:10:09.790Z,17.00
2023-05-18T21:14:13.991Z,16.90
2023-05-18T21:18:17.255Z,17.00
2023-05-18T21:22:21.026Z,16.90
2023-05-18T21:26:23.923Z,16.80
2023-05-18T21:30:26.836Z,16.80
2023-05-18T21:34:30.100Z,16.80
2023-05-18T21:38:33.443Z,16.70
2023-05-18T21:42:36.403Z,16.70
2023-05-18T21:46:39.330Z,16.70
2023-05-18T21:50:42.046Z,16.70
2023-05-18T21:54:45.020Z,16.70
2023-05-18T21:58:47.772Z,16.70
2023-05-18T22:02:50.643Z,16.80
2023-05-18T22:06:54.408Z,16.80
2023-05-18T22:10:58.481Z,16.80
2023-05-18T22:15:01.328Z,16.90
2023-05-18T22:19:05.181Z,16.80
2023-05-18T22:23:09.294Z,16.80
2023-05-18T22:27:12.115Z,16.90
2023-05-18T22:31:15.122Z,16.90
2023-05-18T22:35:18.281Z,16.90
2023-05-18T22:39:21.250Z,16.90
2023-05-18T22:43:24.361Z,16.90
2023-05-18T22:47:28.305Z,16.90
2023-05-18T22:51:33.966Z,16.90
2023-05-18T22:55:36.777Z,17.00
2023-05-18T22:59:40.041Z,16.90
2023-05-18T23:03:42.792Z,16.80
2023-05-18T23:07:45.834Z,16.80
2023-05-18T23:11:50.560Z,16.80
2023-05-18T23:15:56.218Z,16.70
2023-05-18T23:20:03.098Z,16.80
2023-05-18T23:24:06.613Z,16.70
2023-05-18T23:28:09.510Z,16.60
2023-05-18T23:32:12.642Z,16.50
2023-05-18T23:36:20.210Z,16.50
2023-05-18T23:40:24.121Z,16.50
2023-05-18T23:44:29.585Z,16.50
2023-05-18T23:48:32.733Z,16.40
2023-05-18T23:52:36.526Z,16.40
2023-05-18T23:56:39.839Z,16.40
